Terminal Aerodrome Forecast
Issued by NWS

Home | Current Version | Previous Version | Text Only | Print | Product List | Glossary On
Versions: 1 2 3 4 5 6 7 8 9 10 11 12 13 14 15 16 17 18
000
FTUS44 KMAF 161100
TAFHOB
TAF
KHOB 161120Z 1612/1712 17011KT P6SM SCT250
     FM161800 17012G20KT P6SM SCT250
     FM170100 18013KT P6SM SCT250
     FM170900 36012G18KT P6SM SCT250=

USA.gov is the U.S. government's official web portal to all federal, state and local government web resources and services.